Time,TemperatureF,DewpointF,PressureIn,WindDirection,WindDirectionDegrees,WindSpeedMPH,WindSpeedGustMPH,Humidity,HourlyPrecipIn,Conditions,Clouds,dailyrainin,SolarRadiationWatts/m^2,SoftwareType,DateUTC
2013-02-04 00:11:00,66.3,-99.9,29.96,SW,222,0.0,5.0,0,0.01,,,0.12,0,weatherlink.com 1.10,2013-02-04 04:11:00,
2013-02-04 00:25:00,66.8,-99.9,29.96,SW,222,0.0,1.0,0,0.01,,,0.12,0,weatherlink.com 1.10,2013-02-04 04:25:00,
2013-02-04 00:56:00,66.3,-99.9,29.95,SW,222,0.0,0.0,0,0.02,,,0.13,0,weatherlink.com 1.10,2013-02-04 04:56:00,
2013-02-04 01:11:00,65.9,-99.9,29.94,SW,222,0.0,1.0,0,0.01,,,0.13,0,weatherlink.com 1.10,2013-02-04 05:11:00,
2013-02-04 01:26:00,65.2,-99.9,29.94,SW,222,0.0,2.0,0,0.01,,,0.13,0,weatherlink.com 1.10,2013-02-04 05:26:00,
2013-02-04 01:56:00,65.5,-99.9,29.92,SW,222,0.0,1.0,0,0.00,,,0.13,0,weatherlink.com 1.10,2013-02-04 05:56:00,
2013-02-04 02:11:00,65.8,-99.9,29.92,SW,222,0.0,1.0,0,0.00,,,0.13,0,weatherlink.com 1.10,2013-02-04 06:11:00,
2013-02-04 02:26:00,66.1,-99.9,29.91,ENE,69,0.0,1.0,0,0.00,,,0.13,0,weatherlink.com 1.10,2013-02-04 06:26:00,
2013-02-04 02:41:00,66.1,-99.9,29.90,SSE,156,0.0,3.0,0,0.01,,,0.14,0,weatherlink.com 1.10,2013-02-04 06:41:00,
2013-02-04 02:56:00,66.4,-99.9,29.90,SSE,156,1.0,1.0,0,0.01,,,0.14,0,weatherlink.com 1.10,2013-02-04 06:56:00,
2013-02-04 03:12:00,66.4,-99.9,29.89,SSE,156,0.0,1.0,0,0.01,,,0.14,0,weatherlink.com 1.10,2013-02-04 07:12:00,
2013-02-04 03:26:00,65.3,-99.9,29.89,SSE,156,0.0,0.0,0,0.02,,,0.15,0,weatherlink.com 1.10,2013-02-04 07:26:00,
2013-02-04 03:41:00,64.9,-99.9,29.89,SSE,156,0.0,2.0,0,0.01,,,0.15,0,weatherlink.com 1.10,2013-02-04 07:41:00,
2013-02-04 04:11:00,64.2,-99.9,29.89,SSE,156,2.0,2.0,0,0.01,,,0.15,0,weatherlink.com 1.10,2013-02-04 08:11:00,
2013-02-04 04:27:00,63.9,-99.9,29.89,SSE,156,0.0,2.0,0,0.01,,,0.16,0,weatherlink.com 1.10,2013-02-04 08:27:00,
2013-02-04 04:42:00,63.9,-99.9,29.90,SSE,156,0.0,0.0,0,0.02,,,0.17,0,weatherlink.com 1.10,2013-02-04 08:42:00,
2013-02-04 04:57:00,64.0,-99.9,29.90,SSE,156,0.0,0.0,0,0.02,,,0.17,0,weatherlink.com 1.10,2013-02-04 08:57:00,
2013-02-04 05:12:00,64.0,-99.9,29.90,SSE,156,0.0,2.0,0,0.03,,,0.01,0,weatherlink.com 1.10,2013-02-04 09:12:00,
2013-02-04 05:27:00,64.5,-99.9,29.90,SSE,156,1.0,3.0,0,0.03,,,0.02,0,weatherlink.com 1.10,2013-02-04 09:27:00,
2013-02-04 05:42:00,64.7,-99.9,29.90,SSE,156,0.0,1.0,0,0.02,,,0.02,0,weatherlink.com 1.10,2013-02-04 09:42:00,
2013-02-04 05:57:00,64.1,-99.9,29.91,SSE,156,0.0,1.0,0,0.02,,,0.02,0,weatherlink.com 1.10,2013-02-04 09:57:00,
2013-02-04 06:12:00,63.6,-99.9,29.92,SSE,156,0.0,1.0,0,0.02,,,0.03,0,weatherlink.com 1.10,2013-02-04 10:12:00,
2013-02-04 06:27:00,64.3,-99.9,29.93,SSW,209,2.0,4.0,0,0.02,,,0.04,0,weatherlink.com 1.10,2013-02-04 10:27:00,
2013-02-04 06:42:00,64.9,-99.9,29.93,SSW,209,0.0,2.0,0,0.02,,,0.04,0,weatherlink.com 1.10,2013-02-04 10:42:00,
2013-02-04 06:57:00,65.7,-99.9,29.94,SSW,209,0.0,5.0,0,0.03,,,0.05,5,weatherlink.com 1.10,2013-02-04 10:57:00,
2013-02-04 07:12:00,63.9,-99.9,29.95,ENE,57,1.0,5.0,0,0.02,,,0.05,14,weatherlink.com 1.10,2013-02-04 11:12:00,
2013-02-04 07:27:00,64.7,-99.9,29.96,ENE,57,0.0,2.0,0,0.02,,,0.06,46,weatherlink.com 1.10,2013-02-04 11:27:00,
2013-02-04 07:43:00,65.2,-99.9,29.96,ENE,57,0.0,1.0,0,0.02,,,0.06,25,weatherlink.com 1.10,2013-02-04 11:43:00,
2013-02-04 07:59:00,65.7,-99.9,29.97,ENE,57,1.0,2.0,0,0.01,,,0.06,37,weatherlink.com 1.10,2013-02-04 11:59:00,
2013-02-04 08:13:00,65.0,-99.9,29.97,ENE,57,0.0,2.0,0,0.02,,,0.07,47,weatherlink.com 1.10,2013-02-04 12:13:00,
2013-02-04 08:28:00,66.7,-99.9,29.97,ENE,57,0.0,1.0,0,0.02,,,0.08,262,weatherlink.com 1.10,2013-02-04 12:28:00,
2013-02-04 08:43:00,68.1,-99.9,29.98,ENE,57,0.0,2.0,0,0.02,,,0.08,320,weatherlink.com 1.10,2013-02-04 12:43:00,
2013-02-04 09:13:00,69.1,-99.9,29.99,ENE,57,0.0,1.0,0,0.02,,,0.10,434,weatherlink.com 1.10,2013-02-04 13:13:00,
2013-02-04 09:28:00,70.6,-99.9,29.99,ENE,57,0.0,1.0,0,0.02,,,0.10,487,weatherlink.com 1.10,2013-02-04 13:28:00,
2013-02-04 09:43:00,72.4,-99.9,29.99,ENE,57,1.0,2.0,0,0.02,,,0.10,534,weatherlink.com 1.10,2013-02-04 13:43:00,
2013-02-04 09:58:00,74.3,-99.9,30.00,NE,56,0.0,4.0,0,0.01,,,0.10,598,weatherlink.com 1.10,2013-02-04 13:58:00,
2013-02-04 10:13:00,75.5,-99.9,30.00,ENE,63,3.0,5.0,0,0.00,,,0.10,645,weatherlink.com 1.10,2013-02-04 14:13:00,
2013-02-04 10:28:00,77.7,21.0,30.00,East,95,1.0,5.0,12,0.00,,,0.10,740,weatherlink.com 1.10,2013-02-04 14:28:00,
2013-02-04 10:43:00,78.9,35.0,30.00,ESE,109,0.0,7.0,20,0.00,,,0.10,185,weatherlink.com 1.10,2013-02-04 14:43:00,
2013-02-04 10:58:00,77.6,36.0,30.00,SE,140,0.0,3.0,22,0.00,,,0.10,236,weatherlink.com 1.10,2013-02-04 14:58:00,
2013-02-04 14:42:00,77.3,53.0,29.91,ENE,57,3.0,7.0,43,0.00,,,0.14,227,weatherlink.com 1.10,2013-02-04 18:42:00,
2013-02-04 14:58:00,77.3,52.0,29.91,ENE,78,3.0,7.0,41,0.00,,,0.14,225,weatherlink.com 1.10,2013-02-04 18:58:00,
2013-02-04 15:14:00,77.5,52.0,29.91,NE,55,0.0,8.0,41,0.00,,,0.14,209,weatherlink.com 1.10,2013-02-04 19:14:00,
2013-02-04 15:29:00,78.7,54.0,29.91,NE,55,2.0,2.0,43,0.00,,,0.14,494,weatherlink.com 1.10,2013-02-04 19:29:00,
2013-02-04 15:43:00,79.4,58.0,29.90,South,180,0.0,8.0,48,0.01,,,0.15,664,weatherlink.com 1.10,2013-02-04 19:43:00,
2013-02-04 15:59:00,80.5,61.0,29.90,NE,49,2.0,6.0,51,0.01,,,0.15,664,weatherlink.com 1.10,2013-02-04 19:59:00,
2013-02-04 16:14:00,78.3,58.0,29.90,East,91,5.0,7.0,50,0.01,,,0.15,76,weatherlink.com 1.10,2013-02-04 20:14:00,
2013-02-04 16:29:00,76.7,49.0,29.90,East,82,0.0,8.0,38,0.01,,,0.15,134,weatherlink.com 1.10,2013-02-04 20:29:00,
2013-02-04 16:44:00,78.4,56.0,29.90,ENE,78,0.0,8.0,47,0.00,,,0.15,77,weatherlink.com 1.10,2013-02-04 20:44:00,
2013-02-04 16:59:00,76.5,54.0,29.90,ENE,74,1.0,7.0,46,0.01,,,0.16,56,weatherlink.com 1.10,2013-02-04 20:59:00,
2013-02-04 17:14:00,75.5,50.0,29.90,ENE,76,2.0,5.0,41,0.01,,,0.16,35,weatherlink.com 1.10,2013-02-04 21:14:00,
2013-02-04 17:29:00,74.6,51.0,29.91,ESE,121,0.0,5.0,43,0.01,,,0.16,28,weatherlink.com 1.10,2013-02-04 21:29:00,
2013-02-04 17:44:00,74.9,53.0,29.91,East,94,1.0,5.0,46,0.01,,,0.16,81,weatherlink.com 1.10,2013-02-04 21:44:00,
2013-02-04 17:59:00,75.4,55.0,29.91,ESE,112,2.0,5.0,50,0.01,,,0.17,33,weatherlink.com 1.10,2013-02-04 21:59:00,
2013-02-04 18:15:00,74.5,55.0,29.92,SE,133,1.0,10.0,51,0.01,,,0.17,11,weatherlink.com 1.10,2013-02-04 22:15:00,
2013-02-04 18:29:00,73.5,52.0,29.92,East,80,2.0,9.0,47,0.02,,,0.18,0,weatherlink.com 1.10,2013-02-04 22:29:00,
2013-02-04 18:44:00,73.3,52.0,29.93,SE,146,2.0,7.0,47,0.03,,,0.19,0,weatherlink.com 1.10,2013-02-04 22:44:00,
2013-02-04 19:00:00,72.9,50.0,29.94,SE,128,0.0,3.0,45,0.03,,,0.20,0,weatherlink.com 1.10,2013-02-04 23:00:00,
2013-02-04 19:14:00,72.4,48.0,29.94,SE,128,0.0,3.0,42,0.02,,,0.20,0,weatherlink.com 1.10,2013-02-04 23:14:00,
2013-02-04 19:30:00,72.0,46.0,29.95,SE,128,0.0,1.0,39,0.03,,,0.21,0,weatherlink.com 1.10,2013-02-04 23:30:00,
2013-02-04 19:45:00,71.5,44.0,29.95,SE,128,0.0,2.0,38,0.03,,,0.22,0,weatherlink.com 1.10,2013-02-04 23:45:00,
2013-02-04 20:00:00,71.7,45.0,29.96,SE,128,0.0,2.0,39,0.03,,,0.23,0,weatherlink.com 1.10,2013-02-05 00:00:00,
2013-02-04 20:15:00,71.7,46.0,29.96,SE,128,2.0,2.0,40,0.04,,,0.24,0,weatherlink.com 1.10,2013-02-05 00:15:00,
2013-02-04 20:30:00,71.9,47.0,29.97,SE,128,0.0,2.0,42,0.04,,,0.25,0,weatherlink.com 1.10,2013-02-05 00:30:00,
2013-02-04 20:45:00,71.5,44.0,29.97,SE,128,0.0,1.0,38,0.03,,,0.25,0,weatherlink.com 1.10,2013-02-05 00:45:00,
2013-02-04 21:00:00,70.5,37.0,29.98,SE,128,0.0,2.0,29,0.03,,,0.26,0,weatherlink.com 1.10,2013-02-05 01:00:00,
2013-02-04 21:15:00,70.6,37.0,29.98,SE,128,0.0,2.0,29,0.02,,,0.26,0,weatherlink.com 1.10,2013-02-05 01:15:00,
2013-02-04 21:30:00,70.8,39.0,29.99,SE,128,0.0,0.0,31,0.01,,,0.26,0,weatherlink.com 1.10,2013-02-05 01:30:00,
2013-02-04 21:45:00,70.4,36.0,29.99,SE,128,0.0,0.0,28,0.01,,,0.26,0,weatherlink.com 1.10,2013-02-05 01:45:00,
2013-02-04 22:00:00,70.1,34.0,29.99,SE,128,0.0,1.0,26,0.00,,,0.26,0,weatherlink.com 1.10,2013-02-05 02:00:00,
2013-02-04 22:15:00,68.6,12.0,29.99,SE,132,2.0,3.0,11,0.00,,,0.26,0,weatherlink.com 1.10,2013-02-05 02:15:00,
2013-02-04 22:46:00,68.8,10.0,29.99,SE,132,1.0,2.0,10,0.00,,,0.26,0,weatherlink.com 1.10,2013-02-05 02:46:00,
2013-02-04 23:01:00,68.9,16.0,29.99,SE,132,0.0,0.0,13,0.00,,,0.26,0,weatherlink.com 1.10,2013-02-05 03:01:00,
2013-02-04 23:31:00,68.5,2.0,29.98,SE,132,0.0,2.0,7,0.00,,,0.26,0,weatherlink.com 1.10,2013-02-05 03:31:00,
2013-02-04 23:46:00,67.9,-16.0,29.98,SE,132,0.0,2.0,3,0.00,,,0.26,0,weatherlink.com 1.10,2013-02-05 03:46:00,